Hyalite Weather Station

This weather station provides temperature, wind speed, gust or max wind speed, and wind direction at 9982ft near the summit of Flanders Mountain. This data can be used with temperature and precipitation data from the Shower Falls SNOTEL site. If the data has not been updated recently you can view it directly on datagarrison.com

Elevation
9982ft
Jump to table bottom
Date Time Temperature
deg F
RH, % Wind Speed Wind Gust Wind Direction
02/25/20 02:00 3.4 89 10 24 W - 278
02/25/20 01:00 3.7 89 11 28 W - 267
02/25/20 00:00 3.5 89 10 20 W - 272
02/24/20 23:00 4.1 89 9 24 W - 278
02/24/20 22:00 4.7 89 8 24 W - 284
02/24/20 21:00 5.0 89 7 14 W - 277
02/24/20 20:00 5.7 89 7 20 NW - 296
02/24/20 19:00 5.7 89 9 21 NW - 305
02/24/20 18:00 5.7 90 10 25 NW - 300
02/24/20 17:00 6.4 90 12 25 W - 274
02/24/20 16:00 6.9 90 12 26 W - 274
02/24/20 15:00 6.9 90 11 21 W - 279
02/24/20 14:00 6.5 90 14 26 W - 270
02/24/20 13:00 6.7 89 14 29 W - 264
02/24/20 12:00 6.1 89 16 31 W - 264
02/24/20 11:00 5.6 89 17 30 W - 261
02/24/20 10:00 5.3 89 18 33 W - 258
02/24/20 09:00 5.0 89 19 31 W - 261
02/24/20 08:00 4.8 89 20 34 W - 260
02/24/20 07:00 4.8 89 21 35 W - 254
02/24/20 06:00 5.0 89 25 42 W - 257
02/24/20 05:00 4.7 88 24 42 W - 258
02/24/20 04:00 4.8 89 24 39 W - 253
02/24/20 03:00 5.2 89 24 40 W - 254
02/24/20 02:00 6.0 89 22 40 W - 253
02/24/20 01:00 6.2 89 20 37 W - 256
02/24/20 00:00 7.3 90 18 37 W - 256
02/23/20 23:00 8.4 90 20 32 W - 254
02/23/20 22:00 9.7 90 20 36 W - 261
02/23/20 21:00 11.1 79 21 40 W - 257
02/23/20 20:00 18.7 68 25 42 SW - 240
02/23/20 19:00 20.2 66 19 44 SW - 244
02/23/20 18:00 21.7 63 20 34 SW - 244
02/23/20 17:00 22.4 66 20 32 SW - 241
02/23/20 16:00 22.0 64 20 31 SW - 241
02/23/20 15:00 22.9 59 22 42 SW - 241
02/23/20 14:00 22.8 50 23 35 SW - 244
02/23/20 13:00 23.8 35 22 34 SW - 240
02/23/20 12:00 22.6 33 17 28 SW - 243
02/23/20 11:00 22.8 32 21 33 SW - 244
02/23/20 10:00 22.3 34 19 27 W - 250
02/23/20 09:00 21.4 36 17 23 W - 250
02/23/20 08:00 20.8 38 13 20 SW - 244
02/23/20 07:00 20.7 39 11 19 SW - 244
02/23/20 06:00 20.2 44 10 17 SW - 236
02/23/20 05:00 20.2 47 10 16 SW - 241
02/23/20 04:00 20.0 45 9 17 SW - 241
02/23/20 03:00 20.0 48 8 17 W - 277
02/23/20 02:00 20.0 46 10 16 W - 275
02/23/20 01:00 20.6 45 10 18 W - 267